createdAt,value
2023-01-01T00:02:25.627Z,7.50
2023-01-01T00:04:52.557Z,7.50
2023-01-01T00:07:23.559Z,7.60
2023-01-01T00:10:25.032Z,7.50
2023-01-01T00:13:00.796Z,7.60
2023-01-01T00:15:40.442Z,7.60
2023-01-01T00:18:16.793Z,7.60
2023-01-01T00:20:43.690Z,7.60
2023-01-01T00:23:10.561Z,7.60
2023-01-01T00:25:39.545Z,7.60
2023-01-01T00:28:07.355Z,7.70
2023-01-01T00:30:34.469Z,7.60
2023-01-01T00:33:01.492Z,7.70
2023-01-01T00:35:28.318Z,7.70
2023-01-01T00:37:55.960Z,7.70
2023-01-01T00:40:23.567Z,7.70
2023-01-01T00:42:50.526Z,7.70
2023-01-01T00:45:21.978Z,7.70
2023-01-01T00:47:53.966Z,7.70
2023-01-01T00:50:22.037Z,7.70
2023-01-01T00:52:49.546Z,7.80
2023-01-01T00:55:16.769Z,7.80
2023-01-01T00:57:43.687Z,7.70
2023-01-01T01:00:11.446Z,7.80
2023-01-01T01:02:38.496Z,7.80
2023-01-01T01:05:06.098Z,7.80
2023-01-01T01:07:36.842Z,7.80
2023-01-01T01:10:04.139Z,7.80
2023-01-01T01:12:31.007Z,7.90
2023-01-01T01:14:57.863Z,7.80
2023-01-01T01:17:24.685Z,7.80
2023-01-01T01:19:51.524Z,7.80
2023-01-01T01:22:22.827Z,7.80
2023-01-01T01:24:52.875Z,7.90
2023-01-01T01:27:19.754Z,7.90
2023-01-01T01:29:46.595Z,7.80
2023-01-01T01:32:13.504Z,7.90
2023-01-01T01:34:40.388Z,7.90
2023-01-01T01:37:07.321Z,7.90
2023-01-01T01:39:34.186Z,7.90
2023-01-01T01:42:02.533Z,7.90
2023-01-01T01:44:50.403Z,7.90
2023-01-01T01:47:17.287Z,8.00
2023-01-01T01:49:45.216Z,8.00
2023-01-01T01:52:12.996Z,8.00
2023-01-01T01:54:40.923Z,8.00
2023-01-01T01:57:11.503Z,7.90
2023-01-01T01:59:42.868Z,8.00
2023-01-01T02:02:27.594Z,8.00
2023-01-01T02:04:55.648Z,8.00
2023-01-01T02:07:23.967Z,8.00
2023-01-01T02:09:50.959Z,8.00
2023-01-01T02:12:18.025Z,8.00
2023-01-01T02:14:45.017Z,8.00
2023-01-01T02:17:39.497Z,8.00
2023-01-01T02:20:34.480Z,8.00
2023-01-01T02:23:24.066Z,8.10
2023-01-01T02:26:18.466Z,8.10
2023-01-01T02:29:25.751Z,8.00
2023-01-01T02:32:19.837Z,8.10
2023-01-01T02:35:21.174Z,8.00
2023-01-01T02:37:53.104Z,8.10
2023-01-01T02:40:23.329Z,8.10
2023-01-01T02:42:52.438Z,8.10
2023-01-01T02:45:20.045Z,8.10
2023-01-01T02:47:47.021Z,8.10
2023-01-01T02:50:25.738Z,8.10
2023-01-01T02:53:23.049Z,8.10
2023-01-01T02:55:58.538Z,8.20
2023-01-01T02:59:08.768Z,8.20
2023-01-01T03:01:53.415Z,8.20
2023-01-01T03:04:31.507Z,8.10
2023-01-01T03:07:22.389Z,8.20
2023-01-01T03:10:01.813Z,8.20
2023-01-01T03:12:43.901Z,8.20
2023-01-01T03:15:14.776Z,8.20
2023-01-01T03:18:13.470Z,8.20
2023-01-01T03:20:44.060Z,8.20
2023-01-01T03:23:17.693Z,8.20
2023-01-01T03:25:52.982Z,8.20
2023-01-01T03:28:26.941Z,8.20
2023-01-01T03:30:55.037Z,8.20
2023-01-01T03:33:39.178Z,8.20
2023-01-01T03:36:11.913Z,8.20
2023-01-01T03:38:41.053Z,8.30
2023-01-01T03:41:15.827Z,8.20
2023-01-01T03:44:11.670Z,8.20
2023-01-01T03:46:38.724Z,8.20
2023-01-01T03:49:08.112Z,8.20
2023-01-01T03:51:52.933Z,8.20
2023-01-01T03:54:37.981Z,8.30
2023-01-01T03:57:18.772Z,8.30
2023-01-01T04:00:08.153Z,8.30
2023-01-01T04:02:45.078Z,8.20
2023-01-01T04:05:13.569Z,8.20
2023-01-01T04:10:17.747Z,8.20
2023-01-01T04:12:52.883Z,8.20
2023-01-01T04:15:22.770Z,8.20
2023-01-01T04:17:49.900Z,8.20
2023-01-01T04:20:17.276Z,8.20
2023-01-01T04:22:44.307Z,8.20
2023-01-01T04:25:12.179Z,8.20
2023-01-01T04:27:40.210Z,8.20
2023-01-01T04:30:09.817Z,8.20
2023-01-01T04:32:36.692Z,8.20
2023-01-01T04:35:03.891Z,8.20
2023-01-01T04:37:30.816Z,8.20
2023-01-01T04:39:57.681Z,8.20
2023-01-01T04:42:24.537Z,8.20
2023-01-01T04:44:51.366Z,8.20
2023-01-01T04:47:18.298Z,8.20
2023-01-01T04:49:45.149Z,8.20
2023-01-01T04:52:11.994Z,8.20
2023-01-01T04:54:38.832Z,8.20
2023-01-01T04:57:05.850Z,8.20
2023-01-01T04:59:32.741Z,8.20
2023-01-01T05:01:59.752Z,8.30
2023-01-01T05:04:26.771Z,8.30
2023-01-01T05:06:53.610Z,8.20
2023-01-01T05:09:20.556Z,8.20
2023-01-01T05:11:47.531Z,8.20
2023-01-01T05:14:14.384Z,8.20
2023-01-01T05:16:41.577Z,8.20
2023-01-01T05:19:09.888Z,8.20
2023-01-01T05:21:39.586Z,8.30
2023-01-01T05:24:09.531Z,8.20
2023-01-01T05:26:42.839Z,8.20
2023-01-01T05:29:16.123Z,8.20
2023-01-01T05:31:43.864Z,8.30
2023-01-01T05:34:10.743Z,8.20
2023-01-01T05:36:39.184Z,8.20
2023-01-01T05:39:10.750Z,8.20
2023-01-01T05:41:37.828Z,8.30
2023-01-01T05:44:07.315Z,8.30
2023-01-01T05:46:34.739Z,8.20
2023-01-01T05:49:01.829Z,8.20
2023-01-01T05:51:30.310Z,8.20
2023-01-01T05:53:58.329Z,8.20
2023-01-01T05:56:25.621Z,8.20
2023-01-01T05:58:52.745Z,8.20
2023-01-01T06:01:25.565Z,8.20
2023-01-01T06:03:54.635Z,8.30
2023-01-01T06:06:24.900Z,8.20
2023-01-01T06:08:53.202Z,8.30
2023-01-01T06:11:20.363Z,8.30
2023-01-01T06:13:47.862Z,8.30
2023-01-01T06:16:15.195Z,8.20
2023-01-01T06:18:42.195Z,8.30
2023-01-01T06:21:14.462Z,8.30
2023-01-01T06:23:42.623Z,8.30
2023-01-01T06:26:13.475Z,8.30
2023-01-01T06:28:41.234Z,8.30
2023-01-01T06:31:09.623Z,8.30
2023-01-01T06:33:37.030Z,8.30
2023-01-01T06:36:06.164Z,8.20
2023-01-01T06:38:34.692Z,8.30
2023-01-01T06:41:04.267Z,8.30
2023-01-01T06:43:32.927Z,8.20
2023-01-01T06:46:05.689Z,8.30
2023-01-01T06:48:35.586Z,8.20
2023-01-01T06:51:11.075Z,8.20
2023-01-01T06:53:38.549Z,8.30
2023-01-01T06:56:06.506Z,8.20
2023-01-01T06:58:33.664Z,8.20
2023-01-01T07:01:08.250Z,8.20
2023-01-01T07:03:36.179Z,8.20
2023-01-01T07:06:03.671Z,8.20
2023-01-01T07:08:30.533Z,8.20
2023-01-01T07:10:58.074Z,8.20
2023-01-01T07:13:26.354Z,8.20
2023-01-01T07:15:53.613Z,8.20
2023-01-01T07:18:21.460Z,8.20
2023-01-01T07:20:54.508Z,8.20
2023-01-01T07:23:21.400Z,8.20
2023-01-01T07:25:52.943Z,8.20
2023-01-01T07:28:20.404Z,8.20
2023-01-01T07:30:47.670Z,8.20
2023-01-01T07:33:18.042Z,8.20
2023-01-01T07:35:45.878Z,8.30
2023-01-01T07:38:13.932Z,8.20
2023-01-01T07:40:41.116Z,8.20
2023-01-01T07:43:08.994Z,8.30
2023-01-01T07:45:36.160Z,8.20
2023-01-01T07:48:03.301Z,8.20
2023-01-01T07:50:32.729Z,8.20
2023-01-01T07:52:59.857Z,8.20
2023-01-01T07:55:27.536Z,8.30
2023-01-01T07:57:54.455Z,8.20
2023-01-01T08:00:22.364Z,8.20
2023-01-01T08:02:49.718Z,8.20
2023-01-01T08:05:21.234Z,8.20
2023-01-01T08:07:53.113Z,8.20
2023-01-01T08:10:21.924Z,8.20
2023-01-01T08:12:48.943Z,8.20
2023-01-01T08:15:16.628Z,8.30
2023-01-01T08:17:47.006Z,8.30
2023-01-01T08:20:14.239Z,8.30
2023-01-01T08:22:41.116Z,8.30
2023-01-01T08:25:08.601Z,8.30
2023-01-01T08:27:35.479Z,8.30
2023-01-01T08:30:02.474Z,8.30
2023-01-01T08:32:29.325Z,8.30
2023-01-01T08:34:56.194Z,8.30
2023-01-01T08:37:23.715Z,8.30
2023-01-01T08:39:51.887Z,8.30
2023-01-01T08:42:18.747Z,8.30
2023-01-01T08:44:45.783Z,8.40
2023-01-01T08:47:24.779Z,8.40
2023-01-01T08:49:53.476Z,8.40
2023-01-01T08:52:21.099Z,8.40
2023-01-01T08:54:47.988Z,8.40
2023-01-01T08:57:15.029Z,8.40
2023-01-01T08:59:41.966Z,8.40
2023-01-01T09:02:11.207Z,8.40
2023-01-01T09:04:38.286Z,8.40
2023-01-01T09:07:05.142Z,8.40
2023-01-01T09:09:32.095Z,8.40
2023-01-01T09:12:04.224Z,8.40
2023-01-01T09:14:32.215Z,8.40
2023-01-01T09:16:59.610Z,8.40
2023-01-01T09:19:26.891Z,8.40
2023-01-01T09:21:54.429Z,8.40
2023-01-01T09:24:21.254Z,8.30
2023-01-01T09:26:48.129Z,8.30
2023-01-01T09:29:18.817Z,8.30
2023-01-01T09:31:45.831Z,8.30
2023-01-01T09:34:13.044Z,8.30
2023-01-01T09:36:40.080Z,8.30
2023-01-01T09:39:07.049Z,8.30
2023-01-01T09:42:07.963Z,8.30
2023-01-01T09:44:55.657Z,8.30
2023-01-01T09:47:34.205Z,8.30
2023-01-01T09:50:06.891Z,8.30
2023-01-01T09:52:43.736Z,8.30
2023-01-01T09:55:26.404Z,8.20
2023-01-01T09:57:54.398Z,8.20
2023-01-01T10:00:21.489Z,8.20
2023-01-01T10:03:38.611Z,8.20
2023-01-01T10:06:25.798Z,8.20
2023-01-01T10:09:09.856Z,8.10
2023-01-01T10:11:37.327Z,8.00
2023-01-01T10:14:17.375Z,8.00
2023-01-01T10:16:49.214Z,7.90
2023-01-01T10:19:27.915Z,7.70
2023-01-01T10:22:00.687Z,7.60
2023-01-01T10:24:33.434Z,7.40
2023-01-01T10:27:05.939Z,7.30
2023-01-01T10:29:44.161Z,7.20
2023-01-01T10:32:28.094Z,7.20
2023-01-01T10:34:55.674Z,7.00
2023-01-01T10:37:22.896Z,6.80
2023-01-01T10:39:50.579Z,6.80
2023-01-01T10:42:17.547Z,6.80
2023-01-01T10:44:44.964Z,6.80
2023-01-01T10:47:31.405Z,6.80
2023-01-01T10:50:05.291Z,6.80
2023-01-01T10:52:38.163Z,6.70
2023-01-01T10:55:06.549Z,6.70
2023-01-01T10:57:38.030Z,6.70
2023-01-01T11:00:27.636Z,6.60
2023-01-01T11:03:20.213Z,6.60
2023-01-01T11:06:02.968Z,6.70
2023-01-01T11:08:32.123Z,6.70
2023-01-01T11:11:01.659Z,6.70
2023-01-01T11:13:29.957Z,6.80
2023-01-01T11:15:57.246Z,6.80
2023-01-01T11:18:29.127Z,6.70
2023-01-01T11:20:58.451Z,6.70
2023-01-01T11:23:35.106Z,6.80
2023-01-01T11:26:17.364Z,6.80
2023-01-01T11:29:00.060Z,6.80
2023-01-01T11:31:34.096Z,6.80
2023-01-01T11:34:01.105Z,6.70
2023-01-01T11:36:35.517Z,6.60
2023-01-01T11:39:26.556Z,6.70
2023-01-01T11:41:57.923Z,6.70
2023-01-01T11:45:15.197Z,6.60
2023-01-01T11:47:44.441Z,6.60
2023-01-01T11:50:14.244Z,6.60
2023-01-01T11:52:42.526Z,6.60
2023-01-01T11:55:42.927Z,6.60
2023-01-01T11:58:31.020Z,6.50
2023-01-01T12:01:21.936Z,6.40
2023-01-01T12:03:54.911Z,6.50
2023-01-01T12:06:27.860Z,6.50
2023-01-01T12:09:05.558Z,6.50
2023-01-01T12:11:40.933Z,6.50
2023-01-01T12:14:22.361Z,6.40
2023-01-01T12:17:09.728Z,6.40
2023-01-01T12:19:43.715Z,6.40
2023-01-01T12:22:16.805Z,6.40
2023-01-01T12:24:44.811Z,6.40
2023-01-01T12:27:23.586Z,6.40
2023-01-01T12:30:03.776Z,6.40
2023-01-01T12:32:42.825Z,6.40
2023-01-01T12:35:24.098Z,6.30
2023-01-01T12:38:11.184Z,6.30
2023-01-01T12:41:10.921Z,6.30
2023-01-01T12:43:40.806Z,6.30
2023-01-01T12:46:19.560Z,6.30
2023-01-01T12:48:52.004Z,6.30
2023-01-01T12:51:36.517Z,6.30
2023-01-01T12:54:09.050Z,6.30
2023-01-01T12:56:56.120Z,6.30
2023-01-01T12:59:32.167Z,6.20
2023-01-01T13:02:02.203Z,6.10
2023-01-01T13:04:30.352Z,6.10
2023-01-01T13:07:04.322Z,6.00
2023-01-01T13:09:35.544Z,6.10
2023-01-01T13:12:07.731Z,6.00
2023-01-01T13:14:42.729Z,5.90
2023-01-01T13:17:18.765Z,5.80
2023-01-01T13:19:45.629Z,5.80
2023-01-01T13:22:27.499Z,5.80
2023-01-01T13:25:22.393Z,5.80
2023-01-01T13:27:59.455Z,5.70
2023-01-01T13:30:44.064Z,5.60
2023-01-01T13:33:32.105Z,5.70
2023-01-01T13:36:12.031Z,5.60
2023-01-01T13:38:47.545Z,5.60
2023-01-01T13:41:26.623Z,5.60
2023-01-01T13:44:01.194Z,5.60
2023-01-01T13:46:52.371Z,5.50
2023-01-01T13:49:36.921Z,5.50
2023-01-01T13:52:41.208Z,5.60
2023-01-01T13:55:37.858Z,5.60
2023-01-01T13:58:42.476Z,5.50
2023-01-01T14:01:43.544Z,5.60
2023-01-01T14:04:38.670Z,5.50
2023-01-01T14:07:50.801Z,5.60
2023-01-01T14:10:33.473Z,5.70
2023-01-01T14:13:06.167Z,5.60
2023-01-01T14:15:35.971Z,5.50
2023-01-01T14:18:06.723Z,5.50
2023-01-01T14:20:48.379Z,5.40
2023-01-01T14:23:30.881Z,5.50
2023-01-01T14:26:00.031Z,5.50
2023-01-01T14:28:32.527Z,5.60
2023-01-01T14:31:10.477Z,5.50
2023-01-01T14:33:38.615Z,5.50
2023-01-01T14:36:15.842Z,5.50
2023-01-01T14:38:45.198Z,5.50
2023-01-01T14:41:20.685Z,5.50
2023-01-01T14:43:49.782Z,5.50
2023-01-01T14:46:23.678Z,5.60
2023-01-01T14:48:54.359Z,5.60
2023-01-01T14:51:26.826Z,5.60
2023-01-01T14:53:58.043Z,5.50
2023-01-01T14:56:37.431Z,5.50
2023-01-01T14:59:27.076Z,5.40
2023-01-01T15:02:15.000Z,5.40
2023-01-01T15:04:42.836Z,5.30
2023-01-01T15:07:20.923Z,5.30
2023-01-01T15:09:47.923Z,5.40
2023-01-01T15:12:18.074Z,5.40
2023-01-01T15:14:48.248Z,5.40
2023-01-01T15:17:17.635Z,5.40
2023-01-01T15:19:46.643Z,5.50
2023-01-01T15:22:19.700Z,5.50
2023-01-01T15:24:46.849Z,5.50
2023-01-01T15:27:30.001Z,5.50
2023-01-01T15:29:57.808Z,5.50
2023-01-01T15:32:31.166Z,5.50
2023-01-01T15:35:06.703Z,5.50
2023-01-01T15:37:38.107Z,5.50
2023-01-01T15:40:24.917Z,5.50
2023-01-01T15:42:57.688Z,5.60
2023-01-01T15:45:38.714Z,5.50
2023-01-01T15:48:05.600Z,5.60
2023-01-01T15:50:44.267Z,5.50
2023-01-01T15:53:21.886Z,5.60
2023-01-01T15:56:01.423Z,5.50
2023-01-01T15:58:49.056Z,5.60
2023-01-01T16:01:22.400Z,5.60
2023-01-01T16:03:52.371Z,5.50
2023-01-01T16:06:21.120Z,5.50
2023-01-01T16:08:48.017Z,5.50
2023-01-01T16:11:15.407Z,5.50
2023-01-01T16:13:42.355Z,5.60
2023-01-01T16:16:29.959Z,5.50
2023-01-01T16:18:57.752Z,5.40
2023-01-01T16:21:27.690Z,5.40
2023-01-01T16:23:55.604Z,5.40
2023-01-01T16:26:22.774Z,5.30
2023-01-01T16:28:49.889Z,5.30
2023-01-01T16:31:19.920Z,5.40
2023-01-01T16:33:52.965Z,5.30
2023-01-01T16:36:19.882Z,5.30
2023-01-01T16:38:46.710Z,5.30
2023-01-01T16:41:15.731Z,5.30
2023-01-01T16:43:43.702Z,5.30
2023-01-01T16:46:13.491Z,5.30
2023-01-01T16:48:41.224Z,5.30
2023-01-01T16:51:19.252Z,5.20
2023-01-01T16:53:47.009Z,5.30
2023-01-01T16:56:14.512Z,5.30
2023-01-01T16:58:52.175Z,5.40
2023-01-01T17:01:22.616Z,5.40
2023-01-01T17:03:50.221Z,5.30
2023-01-01T17:06:17.630Z,5.30
2023-01-01T17:08:44.555Z,5.40
2023-01-01T17:11:15.291Z,5.40
2023-01-01T17:13:43.526Z,5.40
2023-01-01T17:16:12.263Z,5.40
2023-01-01T17:19:13.434Z,5.40
2023-01-01T17:21:26.820Z,5.40
2023-01-01T17:23:53.911Z,5.40
2023-01-01T17:26:23.343Z,5.40
2023-01-01T17:28:59.750Z,5.40
2023-01-01T17:31:28.772Z,5.40
2023-01-01T17:33:56.040Z,5.40
2023-01-01T17:36:23.071Z,5.40
2023-01-01T17:38:50.094Z,5.40
2023-01-01T17:41:17.746Z,5.30
2023-01-01T17:43:50.368Z,5.30
2023-01-01T17:46:28.340Z,5.30
2023-01-01T17:48:55.614Z,5.30
2023-01-01T17:51:22.916Z,5.30
2023-01-01T17:53:50.389Z,5.30
2023-01-01T17:56:18.776Z,5.20
2023-01-01T17:58:47.057Z,5.30
2023-01-01T18:01:30.850Z,5.30
2023-01-01T18:04:04.563Z,5.20
2023-01-01T18:06:37.350Z,5.10
2023-01-01T18:09:11.388Z,5.10
2023-01-01T18:11:38.259Z,5.10
2023-01-01T18:14:05.972Z,5.10
2023-01-01T18:16:35.249Z,5.00
2023-01-01T18:19:05.330Z,5.10
2023-01-01T18:21:33.755Z,5.00
2023-01-01T18:24:01.485Z,5.10
2023-01-01T18:26:30.812Z,5.10
2023-01-01T18:29:02.292Z,5.10
2023-01-01T18:31:31.476Z,5.10
2023-01-01T18:33:58.913Z,5.10
2023-01-01T18:36:30.419Z,5.10
2023-01-01T18:39:22.218Z,5.10
2023-01-01T18:41:49.068Z,5.20
2023-01-01T18:44:28.982Z,5.10
2023-01-01T18:47:00.426Z,5.00
2023-01-01T18:49:27.468Z,5.00
2023-01-01T18:52:26.071Z,5.00
2023-01-01T18:55:10.906Z,4.90
2023-01-01T18:57:38.621Z,4.80
2023-01-01T19:00:25.879Z,5.00
2023-01-01T19:03:02.523Z,5.00
2023-01-01T19:05:36.483Z,4.90
2023-01-01T19:08:17.124Z,5.00
2023-01-01T19:10:56.507Z,5.00
2023-01-01T19:13:37.657Z,4.90
2023-01-01T19:16:24.326Z,5.00
2023-01-01T19:18:52.675Z,5.00
2023-01-01T19:21:24.159Z,5.00
2023-01-01T19:23:53.494Z,5.00
2023-01-01T19:26:32.216Z,5.00
2023-01-01T19:29:21.985Z,5.00
2023-01-01T19:31:50.859Z,5.00
2023-01-01T19:34:17.812Z,4.90
2023-01-01T19:36:44.737Z,4.90
2023-01-01T19:39:11.706Z,4.90
2023-01-01T19:41:39.031Z,4.90
2023-01-01T19:44:10.137Z,4.90
2023-01-01T19:46:37.429Z,4.90
2023-01-01T19:49:04.435Z,4.90
2023-01-01T19:51:31.321Z,4.90
2023-01-01T19:53:58.127Z,4.90
2023-01-01T19:56:25.135Z,4.90
2023-01-01T19:58:52.120Z,4.90
2023-01-01T20:01:19.271Z,4.80
2023-01-01T20:03:55.233Z,4.80
2023-01-01T20:06:23.304Z,4.80
2023-01-01T20:08:50.173Z,4.80
2023-01-01T20:11:17.071Z,4.90
2023-01-01T20:13:43.876Z,4.90
2023-01-01T20:16:11.163Z,4.80
2023-01-01T20:18:38.166Z,4.80
2023-01-01T20:21:26.404Z,4.80
2023-01-01T20:23:54.710Z,4.80
2023-01-01T20:26:23.709Z,4.80
2023-01-01T20:29:09.527Z,4.70
2023-01-01T20:31:36.828Z,4.70
2023-01-01T20:34:03.737Z,4.70
2023-01-01T20:36:48.905Z,4.70
2023-01-01T20:39:15.717Z,4.70
2023-01-01T20:41:42.679Z,4.90
2023-01-01T20:44:09.520Z,5.00
2023-01-01T20:46:38.362Z,4.90
2023-01-01T20:49:05.569Z,4.90
2023-01-01T20:51:32.881Z,4.80
2023-01-01T20:53:59.964Z,4.90
2023-01-01T20:56:27.535Z,5.00
2023-01-01T20:59:00.213Z,4.80
2023-01-01T21:01:29.909Z,4.90
2023-01-01T21:03:56.933Z,5.00
2023-01-01T21:06:24.920Z,4.80
2023-01-01T21:08:52.493Z,4.90
2023-01-01T21:11:19.377Z,4.90
2023-01-01T21:13:47.129Z,4.90
2023-01-01T21:16:22.599Z,4.90
2023-01-01T21:18:50.518Z,5.00
2023-01-01T21:21:23.831Z,4.90
2023-01-01T21:24:10.006Z,5.00
2023-01-01T21:26:49.335Z,4.90
2023-01-01T21:29:24.496Z,4.90
2023-01-01T21:31:56.444Z,4.80
2023-01-01T21:34:42.718Z,4.80
2023-01-01T21:37:50.109Z,4.90
2023-01-01T21:40:35.830Z,5.00
2023-01-01T21:43:05.473Z,5.00
2023-01-01T21:45:42.685Z,4.80
2023-01-01T21:48:30.993Z,4.90
2023-01-01T21:50:58.719Z,4.80
2023-01-01T21:53:34.892Z,4.90
2023-01-01T21:56:38.366Z,4.90
2023-01-01T21:59:26.394Z,4.80
2023-01-01T22:01:53.842Z,4.90
2023-01-01T22:04:24.059Z,5.00
2023-01-01T22:07:00.159Z,5.00
2023-01-01T22:09:30.411Z,5.00
2023-01-01T22:12:02.598Z,4.80
2023-01-01T22:14:47.074Z,4.90
2023-01-01T22:17:34.989Z,4.80
2023-01-01T22:20:21.925Z,4.90
2023-01-01T22:22:49.203Z,5.00
2023-01-01T22:25:31.311Z,5.00
2023-01-01T22:28:05.198Z,5.00
2023-01-01T22:30:41.387Z,5.10
2023-01-01T22:33:18.607Z,5.10
2023-01-01T22:35:45.677Z,5.10
2023-01-01T22:38:18.443Z,5.00
2023-01-01T22:40:48.805Z,4.90
2023-01-01T22:43:18.423Z,4.90
2023-01-01T22:45:48.264Z,4.90
2023-01-01T22:48:34.879Z,4.90
2023-01-01T22:51:11.630Z,5.00
2023-01-01T22:53:38.478Z,4.90
2023-01-01T22:56:05.609Z,5.00
2023-01-01T22:58:32.513Z,4.90
2023-01-01T23:00:59.369Z,4.90
2023-01-01T23:03:26.283Z,4.90
2023-01-01T23:05:54.319Z,5.00
2023-01-01T23:08:21.250Z,5.00
2023-01-01T23:10:48.434Z,5.00
2023-01-01T23:13:33.729Z,5.00
2023-01-01T23:16:00.629Z,4.90
2023-01-01T23:18:32.943Z,5.00
2023-01-01T23:21:01.943Z,5.00
2023-01-01T23:23:30.975Z,4.90
2023-01-01T23:25:59.021Z,4.70
2023-01-01T23:28:28.499Z,4.70
2023-01-01T23:30:56.452Z,4.80
2023-01-01T23:33:23.647Z,4.90
2023-01-01T23:35:51.542Z,4.90
2023-01-01T23:38:18.529Z,4.90
2023-01-01T23:40:45.398Z,4.90
2023-01-01T23:43:12.317Z,5.00
2023-01-01T23:45:39.568Z,5.00
2023-01-01T23:48:08.036Z,4.90
2023-01-01T23:50:35.037Z,5.00
2023-01-01T23:53:01.959Z,4.90
2023-01-01T23:55:28.758Z,4.90
2023-01-01T23:57:55.557Z,5.00
